Time;durP1;ratioP1;P1;durP2;ratioP2;P2;SDS_P1;SDS_P2;PMS_P1;PMS_P2;Temp;Humidity;BMP_temperature;BMP_pressure;BME280_temperature;BME280_humidity;BME280_pressure;Samples;Min_cycle;Max_cycle;Signal;HPM_P1;HPM_P2
2023/07/26 00:00:59;;;;;;;0.00;0.00;;;13.80;99.90;;;;;;5033599;28;20049;-69
2023/07/26 00:03:24;;;;;;;0.00;0.00;;;13.70;99.90;;;;;;5023829;28;20042;-69
2023/07/26 00:05:50;;;;;;;0.00;0.00;;;13.70;99.90;;;;;;5024004;28;20381;-69
2023/07/26 00:08:16;;;;;;;1.02;1.02;;;13.80;99.90;;;;;;5022627;28;20050;-69
2023/07/26 00:10:46;;;;;;;0.10;0.10;;;13.70;99.90;;;;;;5025406;28;20469;-69
2023/07/26 00:13:12;;;;;;;0.00;0.00;;;13.80;99.90;;;;;;5032192;28;20132;-70
2023/07/26 00:15:38;;;;;;;0.10;0.10;;;13.80;99.90;;;;;;5027358;28;20549;-69
2023/07/26 00:18:04;;;;;;;0.03;0.03;;;13.80;99.90;;;;;;5030366;28;20116;-70
2023/07/26 00:20:29;;;;;;;0.00;0.00;;;13.70;99.90;;;;;;5028369;28;20064;-69
2023/07/26 00:22:55;;;;;;;0.00;0.00;;;13.70;99.90;;;;;;5028309;28;20120;-69
2023/07/26 00:25:20;;;;;;;0.00;0.00;;;13.60;99.90;;;;;;5017821;28;20049;-69
2023/07/26 00:27:46;;;;;;;0.08;0.08;;;13.70;99.90;;;;;;5021957;28;20671;-69
2023/07/26 00:30:14;;;;;;;0.73;0.73;;;13.70;99.90;;;;;;5022967;28;20053;-69
2023/07/26 00:32:39;;;;;;;0.00;0.00;;;13.60;99.90;;;;;;5023049;28;20156;-69
2023/07/26 00:35:06;;;;;;;0.20;0.20;;;13.60;99.90;;;;;;5029106;28;20120;-69
2023/07/26 00:37:31;;;;;;;0.00;0.00;;;13.60;99.90;;;;;;5030272;28;20466;-69
2023/07/26 00:39:57;;;;;;;0.00;0.00;;;13.60;99.90;;;;;;5021852;28;20132;-69
2023/07/26 00:42:23;;;;;;;0.47;0.47;;;13.50;99.90;;;;;;5025803;28;20061;-69
2023/07/26 00:44:48;;;;;;;0.00;0.00;;;13.60;99.90;;;;;;5030573;28;20152;-69
2023/07/26 00:47:14;;;;;;;0.10;0.10;;;13.60;99.90;;;;;;5024106;28;20153;-69
2023/07/26 00:49:40;;;;;;;0.10;0.10;;;13.60;99.90;;;;;;5038314;28;20042;-69
2023/07/26 00:52:07;;;;;;;0.10;0.10;;;13.60;99.90;;;;;;5029110;28;20061;-70
2023/07/26 00:54:33;;;;;;;0.00;0.00;;;13.70;99.90;;;;;;5026174;28;20037;-69
2023/07/26 00:57:00;;;;;;;0.00;0.00;;;13.60;99.90;;;;;;5024660;28;20068;-69
2023/07/26 00:59:25;;;;;;;0.00;0.00;;;13.60;99.90;;;;;;5029282;28;20433;-68
2023/07/26 01:01:51;;;;;;;0.00;0.00;;;13.70;99.90;;;;;;5028557;28;20064;-68
2023/07/26 01:04:17;;;;;;;0.20;0.20;;;13.70;99.90;;;;;;5020699;28;20493;-71
2023/07/26 01:07:08;;;;;;;0.03;0.03;;;13.80;99.90;;;;;;5023956;28;20189;-73
2023/07/26 01:09:34;;;;;;;0.20;0.20;;;13.80;99.90;;;;;;5029671;28;20051;-72
2023/07/26 01:12:09;;;;;;;0.00;0.00;;;13.80;99.90;;;;;;5027500;28;20041;-72
2023/07/26 01:14:47;;;;;;;0.00;0.00;;;13.90;99.90;;;;;;5026845;28;20429;-73
2023/07/26 01:17:13;;;;;;;0.00;0.00;;;13.90;99.90;;;;;;5028201;28;20052;-73
2023/07/26 01:19:38;;;;;;;0.75;0.75;;;14.00;99.90;;;;;;5026873;28;20124;-74
2023/07/26 01:22:04;;;;;;;0.10;0.10;;;13.90;99.90;;;;;;5019296;28;20046;-73
2023/07/26 01:24:31;;;;;;;0.00;0.00;;;13.90;99.90;;;;;;5022251;28;20046;-73
2023/07/26 01:26:57;;;;;;;0.00;0.00;;;13.90;99.90;;;;;;5020298;28;20046;-73
2023/07/26 01:29:22;;;;;;;0.05;0.05;;;13.80;99.90;;;;;;5029774;28;20382;-71
2023/07/26 01:31:49;;;;;;;0.05;0.05;;;13.80;99.90;;;;;;5023366;28;20489;-72
2023/07/26 01:34:15;;;;;;;0.00;0.00;;;13.70;99.90;;;;;;5029835;28;20041;-74
2023/07/26 01:36:41;;;;;;;0.08;0.08;;;13.70;99.90;;;;;;5023892;28;20042;-73
2023/07/26 01:39:09;;;;;;;0.25;0.25;;;13.60;99.90;;;;;;5026453;28;20073;-73
2023/07/26 01:41:35;;;;;;;0.10;0.10;;;13.60;99.90;;;;;;5029332;28;20089;-72
2023/07/26 01:44:01;;;;;;;0.00;0.00;;;13.50;99.90;;;;;;5017406;28;20045;-74
2023/07/26 01:46:27;;;;;;;0.10;0.10;;;13.50;99.90;;;;;;5027744;28;20038;-75
2023/07/26 01:48:52;;;;;;;0.10;0.10;;;13.50;99.90;;;;;;5025651;28;20434;-75
2023/07/26 01:51:18;;;;;;;0.00;0.00;;;13.50;99.90;;;;;;5021437;28;20044;-75
2023/07/26 01:53:43;;;;;;;0.00;0.00;;;13.50;99.90;;;;;;5027251;28;20045;-75
2023/07/26 01:56:09;;;;;;;0.00;0.00;;;13.50;99.90;;;;;;5023128;28;20052;-72
2023/07/26 01:58:35;;;;;;;4.47;0.98;;;13.50;99.90;;;;;;5028571;28;20030;-70
2023/07/26 02:01:02;;;;;;;0.20;0.20;;;13.50;99.90;;;;;;5029025;28;20042;-69
2023/07/26 02:03:28;;;;;;;0.10;0.10;;;13.50;99.90;;;;;;5030518;28;20037;-69
2023/07/26 02:05:54;;;;;;;0.00;0.00;;;13.50;99.90;;;;;;5024766;28;20194;-70
2023/07/26 02:08:19;;;;;;;0.00;0.00;;;13.50;99.90;;;;;;5029003;28;20040;-69
2023/07/26 02:10:45;;;;;;;0.00;0.00;;;13.50;99.90;;;;;;5019807;28;20545;-70
2023/07/26 02:13:11;;;;;;;0.10;0.10;;;13.60;99.90;;;;;;5028891;28;20163;-70
2023/07/26 02:15:36;;;;;;;0.13;0.13;;;13.60;99.90;;;;;;5025678;28;20065;-69
2023/07/26 02:18:02;;;;;;;1.20;0.65;;;13.60;99.90;;;;;;5024907;28;20412;-69
2023/07/26 02:20:28;;;;;;;0.10;0.10;;;13.60;99.90;;;;;;5029732;28;20045;-70
2023/07/26 02:22:54;;;;;;;0.38;0.38;;;13.60;99.90;;;;;;5030015;28;20137;-69
2023/07/26 02:25:19;;;;;;;0.00;0.00;;;13.70;99.90;;;;;;5026762;28;20068;-69
2023/07/26 02:27:45;;;;;;;0.00;0.00;;;13.70;99.90;;;;;;5025100;28;20049;-70
2023/07/26 02:30:11;;;;;;;5.85;0.82;;;13.70;99.90;;;;;;5021265;28;20125;-70
2023/07/26 02:32:36;;;;;;;0.20;0.20;;;13.70;99.90;;;;;;5030848;28;20061;-69
2023/07/26 02:35:02;;;;;;;0.08;0.08;;;13.60;99.90;;;;;;5030244;28;20048;-70
2023/07/26 02:37:28;;;;;;;0.00;0.00;;;13.60;99.90;;;;;;5018867;28;20037;-69
2023/07/26 02:39:53;;;;;;;0.00;0.00;;;13.60;99.90;;;;;;5029226;28;20055;-70
2023/07/26 02:42:19;;;;;;;0.10;0.10;;;13.60;99.90;;;;;;5027143;28;20045;-70
2023/07/26 02:44:47;;;;;;;0.15;0.15;;;13.70;99.90;;;;;;5025420;28;20054;-69
2023/07/26 02:47:13;;;;;;;0.50;0.22;;;13.70;99.90;;;;;;5028419;28;20053;-70
2023/07/26 02:49:39;;;;;;;0.00;0.00;;;13.80;99.90;;;;;;5025054;28;20081;-69
2023/07/26 02:52:04;;;;;;;0.10;0.10;;;13.80;99.90;;;;;;5025835;28;20072;-69
2023/07/26 02:54:30;;;;;;;0.10;0.10;;;13.80;99.90;;;;;;5024962;28;20051;-69
2023/07/26 02:56:56;;;;;;;0.00;0.00;;;13.90;99.90;;;;;;5028578;28;20034;-69
2023/07/26 02:59:21;;;;;;;0.00;0.00;;;13.90;99.90;;;;;;5029614;28;20041;-69
2023/07/26 03:01:47;;;;;;;0.00;0.00;;;13.90;99.90;;;;;;5022909;28;20038;-70
2023/07/26 03:04:13;;;;;;;0.00;0.00;;;13.90;99.90;;;;;;5017196;28;20485;-70
2023/07/26 03:06:40;;;;;;;0.00;0.00;;;13.90;99.90;;;;;;5022723;28;20115;-70
2023/07/26 03:09:06;;;;;;;0.13;0.13;;;13.90;99.90;;;;;;5024855;28;20046;-70
2023/07/26 03:11:32;;;;;;;0.00;0.00;;;13.90;99.90;;;;;;5021163;28;20041;-70
2023/07/26 03:13:57;;;;;;;0.10;0.10;;;13.90;99.90;;;;;;5023688;28;20412;-70
2023/07/26 03:16:23;;;;;;;0.00;0.00;;;13.90;99.90;;;;;;5022743;28;20049;-69
2023/07/26 03:18:49;;;;;;;0.00;0.00;;;13.90;99.90;;;;;;5020644;28;20476;-69
2023/07/26 03:21:15;;;;;;;0.00;0.00;;;13.80;99.90;;;;;;5024023;28;20421;-70
2023/07/26 03:23:40;;;;;;;0.00;0.00;;;13.80;99.90;;;;;;5022674;28;20050;-69
2023/07/26 03:26:06;;;;;;;0.00;0.00;;;13.70;99.90;;;;;;5016944;28;20460;-69
2023/07/26 03:28:32;;;;;;;0.10;0.10;;;13.70;99.90;;;;;;5034819;28;20069;-70
2023/07/26 03:30:58;;;;;;;0.00;0.00;;;13.70;99.90;;;;;;5028160;28;20034;-69
2023/07/26 03:33:23;;;;;;;0.30;0.30;;;13.60;99.90;;;;;;5022275;28;20050;-69
2023/07/26 03:35:49;;;;;;;0.00;0.00;;;13.60;99.90;;;;;;5016204;28;20133;-70
2023/07/26 03:38:14;;;;;;;0.10;0.10;;;13.60;99.90;;;;;;5019881;28;20099;-69
2023/07/26 03:40:40;;;;;;;0.00;0.00;;;13.60;99.90;;;;;;5026182;28;20044;-69
2023/07/26 03:43:07;;;;;;;0.00;0.00;;;13.50;99.90;;;;;;5023090;28;20290;-69
2023/07/26 03:45:33;;;;;;;0.00;0.00;;;13.50;99.90;;;;;;5023205;28;20123;-69
2023/07/26 03:48:00;;;;;;;0.47;0.47;;;13.50;99.90;;;;;;5018015;28;20037;-69
2023/07/26 03:50:26;;;;;;;0.03;0.03;;;13.50;99.90;;;;;;5023371;28;20133;-70
2023/07/26 03:52:52;;;;;;;0.30;0.30;;;13.50;99.90;;;;;;5027347;28;20092;-69
2023/07/26 03:55:17;;;;;;;0.28;0.28;;;13.50;99.90;;;;;;5027248;28;20045;-69
2023/07/26 03:57:43;;;;;;;0.00;0.00;;;13.50;99.90;;;;;;5013201;28;20050;-69
2023/07/26 04:00:09;;;;;;;0.00;0.00;;;13.50;99.90;;;;;;5032711;28;20042;-69
2023/07/26 04:02:35;;;;;;;0.38;0.38;;;13.50;99.90;;;;;;5021883;28;20054;-69
2023/07/26 04:05:01;;;;;;;0.00;0.00;;;13.50;99.90;;;;;;5017376;28;20387;-69
2023/07/26 04:07:26;;;;;;;0.00;0.00;;;13.50;99.90;;;;;;5019705;28;20133;-69
2023/07/26 04:09:52;;;;;;;0.00;0.00;;;13.60;99.90;;;;;;5017655;28;20049;-69
2023/07/26 04:12:18;;;;;;;0.00;0.00;;;13.60;99.90;;;;;;5027491;28;20477;-69
2023/07/26 04:14:44;;;;;;;0.40;0.40;;;13.60;99.90;;;;;;5021249;28;20033;-69
2023/07/26 04:17:10;;;;;;;0.20;0.20;;;13.60;99.90;;;;;;5021106;28;20120;-70
2023/07/26 04:19:35;;;;;;;0.00;0.00;;;13.60;99.90;;;;;;5028814;28;20042;-69
2023/07/26 04:22:01;;;;;;;0.00;0.00;;;13.70;99.90;;;;;;5020833;28;20497;-70
2023/07/26 04:24:27;;;;;;;0.00;0.00;;;13.70;99.90;;;;;;5022681;28;20045;-69
2023/07/26 04:26:53;;;;;;;1.10;0.43;;;13.80;99.90;;;;;;5023752;28;20044;-69
2023/07/26 04:29:19;;;;;;;1.27;1.17;;;13.80;99.90;;;;;;5028522;28;20041;-69
2023/07/26 04:31:44;;;;;;;0.00;0.00;;;13.80;99.90;;;;;;5026573;28;20103;-69
2023/07/26 04:34:12;;;;;;;0.00;0.00;;;13.80;99.90;;;;;;5019584;28;20058;-69
2023/07/26 04:36:38;;;;;;;0.00;0.00;;;13.70;99.90;;;;;;5021894;28;20104;-69
2023/07/26 04:39:03;;;;;;;0.20;0.20;;;13.70;99.90;;;;;;5021549;28;20080;-69
2023/07/26 04:41:29;;;;;;;0.05;0.05;;;13.70;99.90;;;;;;5028018;28;20038;-69
2023/07/26 04:43:55;;;;;;;0.20;0.20;;;13.60;99.90;;;;;;5029885;28;20046;-69
2023/07/26 04:46:20;;;;;;;0.00;0.00;;;13.60;99.90;;;;;;5021804;28;20041;-69
2023/07/26 04:48:46;;;;;;;0.10;0.10;;;13.70;99.90;;;;;;5023485;28;20068;-69
2023/07/26 04:51:13;;;;;;;0.00;0.00;;;13.60;99.90;;;;;;5022186;28;20433;-69
2023/07/26 04:53:38;;;;;;;0.00;0.00;;;13.60;99.90;;;;;;5023622;28;20057;-69
2023/07/26 04:56:04;;;;;;;0.00;0.00;;;13.60;99.90;;;;;;5029343;28;20041;-69
2023/07/26 04:58:30;;;;;;;0.00;0.00;;;13.60;99.90;;;;;;5027092;28;20478;-69
2023/07/26 05:00:56;;;;;;;2.40;0.52;;;13.60;99.90;;;;;;5027708;28;20045;-69
2023/07/26 05:03:21;;;;;;;0.10;0.10;;;13.60;99.90;;;;;;5036260;28;20037;-69
2023/07/26 05:05:51;;;;;;;0.00;0.00;;;13.60;99.90;;;;;;5020252;28;20076;-69
2023/07/26 05:08:18;;;;;;;0.10;0.10;;;13.50;99.90;;;;;;5023668;28;20076;-69
2023/07/26 05:10:49;;;;;;;0.10;0.10;;;13.60;99.90;;;;;;5016663;28;20493;-69
2023/07/26 05:13:14;;;;;;;0.00;0.00;;;13.60;99.90;;;;;;5024035;28;20046;-69
2023/07/26 05:15:40;;;;;;;0.10;0.10;;;13.60;99.90;;;;;;5023150;28;20060;-70
2023/07/26 05:18:05;;;;;;;0.00;0.00;;;13.50;99.90;;;;;;5028210;28;20045;-69
2023/07/26 05:20:31;;;;;;;0.00;0.00;;;13.50;99.90;;;;;;5025851;28;20037;-70
2023/07/26 05:22:56;;;;;;;0.00;0.00;;;13.20;99.90;;;;;;5021714;28;20049;-69
2023/07/26 05:25:22;;;;;;;0.00;0.00;;;13.20;99.90;;;;;;5027256;28;20045;-69
2023/07/26 05:27:48;;;;;;;0.20;0.20;;;13.20;99.90;;;;;;5025890;28;20041;-69
2023/07/26 05:30:17;;;;;;;0.00;0.00;;;13.10;99.90;;;;;;5026295;28;20076;-69
2023/07/26 05:32:43;;;;;;;0.10;0.10;;;13.00;99.90;;;;;;5029488;28;20132;-69
2023/07/26 05:35:11;;;;;;;0.03;0.03;;;13.00;99.90;;;;;;5026599;28;21427;-68
2023/07/26 05:37:37;;;;;;;0.00;0.00;;;13.00;99.90;;;;;;5021781;28;20058;-68
2023/07/26 05:40:05;;;;;;;0.10;0.10;;;13.00;99.90;;;;;;5026657;28;20056;-69
2023/07/26 05:42:31;;;;;;;0.10;0.10;;;13.10;99.90;;;;;;5027235;28;20385;-69
2023/07/26 05:44:57;;;;;;;0.10;0.10;;;13.10;99.90;;;;;;5030591;28;20049;-69
2023/07/26 05:47:22;;;;;;;0.52;0.30;;;13.10;99.90;;;;;;5031342;28;20126;-68
2023/07/26 05:49:48;;;;;;;0.00;0.00;;;13.10;99.90;;;;;;5016875;28;20405;-70
2023/07/26 05:52:13;;;;;;;0.00;0.00;;;13.10;99.90;;;;;;5022648;28;20485;-69
2023/07/26 05:54:39;;;;;;;0.00;0.00;;;13.10;99.90;;;;;;5023825;28;20038;-68
2023/07/26 05:57:05;;;;;;;0.30;0.30;;;13.10;99.90;;;;;;5017526;28;20179;-69
2023/07/26 05:59:30;;;;;;;0.00;0.00;;;13.10;99.90;;;;;;5028355;28;20046;-69
2023/07/26 06:01:58;;;;;;;0.00;0.00;;;13.10;99.90;;;;;;5030753;28;20036;-69
2023/07/26 06:04:24;;;;;;;0.47;0.47;;;13.10;99.90;;;;;;5025931;28;20064;-69
2023/07/26 06:06:50;;;;;;;0.38;0.38;;;13.20;99.90;;;;;;5026667;28;20038;-69
2023/07/26 06:09:15;;;;;;;0.00;0.00;;;13.20;99.90;;;;;;5019713;28;20057;-69
2023/07/26 06:11:42;;;;;;;0.32;0.32;;;13.30;99.90;;;;;;5026963;28;20488;-69
2023/07/26 06:14:08;;;;;;;0.00;0.00;;;13.30;99.90;;;;;;5031106;28;20400;-69
2023/07/26 06:16:34;;;;;;;0.10;0.10;;;13.30;99.90;;;;;;5028840;28;20041;-69
2023/07/26 06:18:59;;;;;;;0.00;0.00;;;13.30;99.90;;;;;;5016541;28;20056;-69
2023/07/26 06:21:25;;;;;;;3.30;1.30;;;13.40;99.90;;;;;;5029121;28;20117;-69
2023/07/26 06:23:50;;;;;;;0.20;0.20;;;13.30;99.90;;;;;;5029507;28;20044;-69
2023/07/26 06:26:16;;;;;;;0.10;0.10;;;13.40;99.90;;;;;;5021286;28;20100;-69
2023/07/26 06:28:42;;;;;;;0.00;0.00;;;13.30;99.90;;;;;;5020529;28;20132;-69
2023/07/26 06:31:08;;;;;;;0.20;0.20;;;13.30;99.90;;;;;;5024610;28;20046;-69
2023/07/26 06:33:34;;;;;;;0.10;0.10;;;13.30;99.90;;;;;;5022873;28;20061;-69
2023/07/26 06:35:59;;;;;;;0.00;0.00;;;13.20;99.90;;;;;;5024967;28;20132;-69
2023/07/26 06:38:25;;;;;;;0.47;0.47;;;13.30;99.90;;;;;;5021814;28;20034;-69
2023/07/26 06:40:50;;;;;;;0.10;0.10;;;13.30;99.90;;;;;;5018597;28;20075;-69
2023/07/26 06:43:16;;;;;;;0.08;0.08;;;13.30;99.90;;;;;;5022179;28;20049;-69
2023/07/26 06:45:46;;;;;;;0.00;0.00;;;13.30;99.90;;;;;;5027632;28;20042;-69
2023/07/26 06:48:12;;;;;;;0.60;0.52;;;13.30;99.90;;;;;;5029905;28;20045;-69
2023/07/26 06:50:41;;;;;;;0.10;0.10;;;13.30;99.90;;;;;;5028747;28;20456;-68
2023/07/26 06:53:08;;;;;;;1.20;1.00;;;13.30;99.90;;;;;;5024450;28;20045;-69
2023/07/26 06:55:34;;;;;;;0.10;0.10;;;13.30;99.90;;;;;;5022077;28;20053;-68
2023/07/26 06:58:00;;;;;;;0.22;0.22;;;13.30;99.90;;;;;;5029347;28;20047;-69
2023/07/26 07:00:26;;;;;;;0.10;0.10;;;13.40;99.90;;;;;;5031561;28;20029;-69
2023/07/26 07:02:59;;;;;;;0.10;0.10;;;13.30;99.90;;;;;;5018095;28;20053;-69
2023/07/26 07:05:27;;;;;;;0.00;0.00;;;13.30;99.90;;;;;;5025760;28;20084;-68
2023/07/26 07:07:52;;;;;;;0.10;0.10;;;13.30;99.90;;;;;;5027829;28;20052;-69
2023/07/26 07:10:18;;;;;;;0.10;0.10;;;13.30;99.90;;;;;;5024218;28;20398;-69
2023/07/26 07:12:43;;;;;;;0.00;0.00;;;13.40;99.90;;;;;;5020210;28;20052;-69
2023/07/26 07:15:09;;;;;;;0.03;0.03;;;13.50;99.90;;;;;;5025458;28;20128;-69
2023/07/26 07:17:35;;;;;;;0.00;0.00;;;13.60;99.90;;;;;;5019928;28;20034;-69
2023/07/26 07:20:01;;;;;;;0.00;0.00;;;13.60;99.90;;;;;;5021599;28;20049;-69
2023/07/26 07:22:27;;;;;;;1.45;1.08;;;13.60;99.90;;;;;;5019631;28;20034;-69
2023/07/26 07:24:53;;;;;;;0.30;0.30;;;13.70;99.90;;;;;;5017037;28;20049;-69
2023/07/26 07:27:20;;;;;;;0.00;0.00;;;13.70;99.90;;;;;;5021268;28;20049;-69
2023/07/26 07:29:46;;;;;;;0.08;0.08;;;13.70;99.90;;;;;;5018487;28;20116;-68
2023/07/26 07:32:12;;;;;;;0.10;0.10;;;13.80;99.90;;;;;;5020335;28;20504;-68
2023/07/26 07:34:38;;;;;;;0.00;0.00;;;13.90;99.90;;;;;;5023451;28;20045;-69
2023/07/26 07:37:04;;;;;;;0.03;0.03;;;14.00;99.90;;;;;;5018028;28;20041;-69
2023/07/26 07:39:30;;;;;;;0.00;0.00;;;14.00;99.90;;;;;;5023649;28;20091;-69
2023/07/26 07:41:55;;;;;;;0.28;0.28;;;14.10;99.90;;;;;;5018872;28;20405;-69
2023/07/26 07:44:21;;;;;;;0.20;0.20;;;14.10;99.90;;;;;;5022482;28;20413;-69
2023/07/26 07:46:46;;;;;;;0.47;0.25;;;14.20;99.90;;;;;;5016151;28;20045;-69
2023/07/26 07:49:12;;;;;;;0.00;0.00;;;14.20;99.90;;;;;;5017042;28;20132;-69
2023/07/26 07:51:38;;;;;;;0.10;0.10;;;14.20;99.90;;;;;;5019130;28;20041;-69
2023/07/26 07:54:04;;;;;;;0.00;0.00;;;14.30;99.90;;;;;;5020781;28;20107;-69
2023/07/26 07:56:30;;;;;;;0.00;0.00;;;14.40;99.90;;;;;;5018025;28;20045;-69
2023/07/26 07:58:56;;;;;;;0.00;0.00;;;14.40;99.90;;;;;;5024210;28;20088;-69
2023/07/26 08:01:21;;;;;;;0.00;0.00;;;14.50;99.90;;;;;;5022286;28;20052;-69
2023/07/26 08:03:47;;;;;;;0.00;0.00;;;14.50;99.90;;;;;;5023501;28;20132;-69
2023/07/26 08:06:13;;;;;;;0.15;0.15;;;14.60;99.90;;;;;;5022634;28;20045;-69
2023/07/26 08:08:40;;;;;;;1.38;0.40;;;14.60;99.90;;;;;;5022969;28;20053;-69
2023/07/26 08:11:06;;;;;;;0.08;0.08;;;14.70;99.90;;;;;;5026870;28;20091;-69
2023/07/26 08:13:33;;;;;;;0.20;0.20;;;14.80;99.90;;;;;;5026722;28;20042;-69
2023/07/26 08:15:59;;;;;;;0.00;0.00;;;14.90;99.90;;;;;;5026608;28;20519;-69
2023/07/26 08:18:25;;;;;;;0.00;0.00;;;15.00;99.90;;;;;;5024971;28;20038;-69
2023/07/26 08:20:50;;;;;;;0.47;0.47;;;15.10;99.90;;;;;;5029172;28;20041;-69
2023/07/26 08:23:16;;;;;;;0.00;0.00;;;15.20;99.90;;;;;;5029467;28;20041;-69
2023/07/26 08:25:42;;;;;;;0.00;0.00;;;15.20;99.90;;;;;;5021681;28;20041;-69
2023/07/26 08:28:07;;;;;;;0.03;0.03;;;15.40;99.90;;;;;;5028964;28;20506;-69
2023/07/26 08:30:33;;;;;;;0.22;0.22;;;15.50;99.90;;;;;;5030270;28;20111;-69
2023/07/26 08:32:59;;;;;;;0.13;0.13;;;15.60;99.90;;;;;;5027069;28;20057;-69
2023/07/26 08:35:24;;;;;;;0.00;0.00;;;15.60;99.90;;;;;;5023545;28;20057;-69
2023/07/26 08:37:50;;;;;;;0.00;0.00;;;15.60;99.90;;;;;;5027672;28;20116;-70
2023/07/26 08:40:16;;;;;;;0.00;0.00;;;15.50;99.90;;;;;;5029108;28;20037;-70
2023/07/26 08:42:42;;;;;;;0.00;0.00;;;15.50;99.90;;;;;;5032268;28;20486;-70
2023/07/26 08:45:09;;;;;;;0.10;0.10;;;15.40;99.90;;;;;;5026012;28;20047;-70
2023/07/26 08:47:35;;;;;;;0.00;0.00;;;15.40;99.90;;;;;;5027147;28;20053;-70
2023/07/26 08:50:03;;;;;;;0.17;0.17;;;15.30;99.90;;;;;;5025912;28;20057;-70
2023/07/26 08:52:29;;;;;;;0.00;0.00;;;15.30;99.90;;;;;;5027465;28;20413;-70
2023/07/26 08:54:55;;;;;;;0.00;0.00;;;15.50;99.90;;;;;;5024268;28;20030;-70
2023/07/26 08:57:23;;;;;;;0.10;0.10;;;15.50;99.90;;;;;;5032157;28;20499;-70
2023/07/26 08:59:49;;;;;;;0.10;0.10;;;15.60;99.90;;;;;;5026797;28;20045;-70
2023/07/26 09:02:16;;;;;;;0.00;0.00;;;15.70;99.90;;;;;;5020295;28;20041;-70
2023/07/26 09:04:41;;;;;;;0.00;0.00;;;15.80;99.90;;;;;;5023717;28;20081;-70
2023/07/26 09:07:07;;;;;;;0.20;0.20;;;15.90;99.90;;;;;;5023482;28;20073;-70
2023/07/26 09:09:34;;;;;;;0.30;0.30;;;15.90;99.90;;;;;;5020734;28;20042;-70
2023/07/26 09:12:00;;;;;;;0.00;0.00;;;16.00;99.90;;;;;;5024973;28;20048;-70
2023/07/26 09:14:28;;;;;;;0.20;0.20;;;16.00;99.90;;;;;;5026341;28;20049;-70
2023/07/26 09:16:56;;;;;;;0.10;0.10;;;16.20;99.90;;;;;;5018343;28;20042;-70
2023/07/26 09:19:28;;;;;;;0.10;0.10;;;16.30;99.90;;;;;;5013868;28;20441;-70
2023/07/26 09:22:00;;;;;;;0.77;0.77;;;16.30;99.90;;;;;;5021657;28;20551;-70
2023/07/26 09:24:39;;;;;;;0.00;0.00;;;16.40;99.90;;;;;;5024131;28;20083;-70
2023/07/26 09:27:12;;;;;;;0.20;0.20;;;16.30;99.90;;;;;;5021249;28;20100;-70
2023/07/26 09:29:40;;;;;;;0.00;0.00;;;16.10;99.90;;;;;;5023355;28;20045;-70
2023/07/26 09:32:07;;;;;;;0.20;0.20;;;16.10;99.90;;;;;;5024197;28;20061;-70
2023/07/26 09:34:32;;;;;;;0.25;0.25;;;16.00;99.90;;;;;;5023324;28;20044;-70
2023/07/26 09:36:59;;;;;;;0.32;0.32;;;16.00;99.90;;;;;;5023737;28;20037;-70
2023/07/26 09:39:27;;;;;;;0.00;0.00;;;16.10;99.90;;;;;;5026840;28;20046;-70
2023/07/26 09:42:07;;;;;;;0.30;0.30;;;16.00;99.90;;;;;;5017533;28;20508;-70
2023/07/26 09:44:33;;;;;;;0.10;0.10;;;16.10;99.90;;;;;;5031056;28;20064;-70
2023/07/26 09:46:59;;;;;;;0.10;0.10;;;16.40;99.90;;;;;;5026448;28;20120;-69
2023/07/26 09:49:27;;;;;;;0.00;0.00;;;16.50;99.90;;;;;;5019278;28;20121;-71
2023/07/26 09:51:57;;;;;;;0.63;0.60;;;16.40;99.90;;;;;;5016519;28;20046;-71
2023/07/26 09:54:26;;;;;;;0.55;0.55;;;16.30;99.90;;;;;;5027821;28;20099;-71
2023/07/26 09:56:54;;;;;;;0.00;0.00;;;16.30;99.90;;;;;;5019099;28;20037;-71
2023/07/26 09:59:22;;;;;;;0.00;0.00;;;16.30;99.90;;;;;;5025866;28;20655;-71
2023/07/26 10:01:48;;;;;;;0.90;0.75;;;16.40;99.90;;;;;;5019419;28;20796;-69
2023/07/26 10:04:37;;;;;;;0.00;0.00;;;16.30;99.90;;;;;;5027499;28;20045;-70
2023/07/26 10:07:08;;;;;;;0.32;0.32;;;16.30;99.90;;;;;;5009466;28;20045;-71
2023/07/26 10:09:34;;;;;;;0.10;0.10;;;16.30;99.90;;;;;;5023115;28;20052;-71
2023/07/26 10:12:02;;;;;;;0.30;0.30;;;16.40;99.90;;;;;;5020200;28;20080;-70
2023/07/26 10:14:30;;;;;;;0.03;0.03;;;16.40;99.90;;;;;;5026551;28;20040;-70
2023/07/26 10:16:58;;;;;;;0.00;0.00;;;16.40;99.90;;;;;;5023936;28;20049;-70
2023/07/26 10:19:26;;;;;;;0.00;0.00;;;16.40;99.90;;;;;;5019024;28;20053;-70
2023/07/26 10:21:52;;;;;;;0.00;0.00;;;16.60;99.90;;;;;;5022156;28;20048;-70
2023/07/26 10:24:19;;;;;;;0.00;0.00;;;16.70;99.90;;;;;;5030674;28;20469;-71
2023/07/26 10:26:46;;;;;;;0.00;0.00;;;16.80;99.90;;;;;;5019031;28;20084;-70
2023/07/26 10:29:12;;;;;;;0.10;0.10;;;17.10;99.90;;;;;;5026476;28;20046;-71
2023/07/26 10:31:38;;;;;;;0.00;0.00;;;17.20;99.90;;;;;;5028022;28;20045;-70
2023/07/26 10:34:04;;;;;;;0.10;0.10;;;17.50;99.90;;;;;;5024392;28;20081;-71
2023/07/26 10:36:31;;;;;;;0.03;0.03;;;17.50;99.90;;;;;;5021150;28;20077;-70
2023/07/26 10:39:04;;;;;;;0.15;0.15;;;17.40;99.90;;;;;;5024831;28;20046;-71
2023/07/26 10:41:30;;;;;;;0.00;0.00;;;17.30;99.90;;;;;;5025338;28;20045;-70
2023/07/26 10:44:09;;;;;;;0.00;0.00;;;17.20;99.90;;;;;;5023336;28;20049;-70
2023/07/26 10:46:53;;;;;;;0.03;0.03;;;17.10;99.90;;;;;;5021921;28;20045;-70
2023/07/26 10:49:27;;;;;;;0.00;0.00;;;16.90;99.90;;;;;;5016361;28;20046;-71
2023/07/26 10:52:02;;;;;;;0.20;0.20;;;16.70;99.90;;;;;;5017737;28;20124;-71
2023/07/26 10:54:42;;;;;;;0.05;0.05;;;16.60;99.90;;;;;;5017992;28;20526;-71
2023/07/26 10:57:23;;;;;;;0.00;0.00;;;16.50;99.90;;;;;;5020364;28;20041;-70
2023/07/26 10:59:57;;;;;;;0.00;0.00;;;16.40;99.90;;;;;;5027189;28;20644;-70
2023/07/26 11:02:45;;;;;;;0.00;0.00;;;16.60;99.90;;;;;;5027070;28;20056;-70
2023/07/26 11:05:20;;;;;;;0.00;0.00;;;17.00;99.90;;;;;;5021512;28;20037;-71
2023/07/26 11:08:06;;;;;;;0.32;0.30;;;17.10;99.90;;;;;;5027269;28;20132;-71
2023/07/26 11:10:33;;;;;;;0.47;0.40;;;17.60;99.90;;;;;;5025604;28;20042;-71
2023/07/26 11:13:13;;;;;;;0.10;0.10;;;17.60;99.90;;;;;;5022831;28;20132;-71
2023/07/26 11:15:43;;;;;;;0.00;0.00;;;17.70;99.90;;;;;;5019576;28;20124;-71
2023/07/26 11:18:10;;;;;;;0.47;0.47;;;17.50;99.90;;;;;;5028345;28;20042;-72
2023/07/26 11:20:43;;;;;;;0.05;0.05;;;17.60;99.90;;;;;;5015016;28;20045;-72
2023/07/26 11:23:23;;;;;;;0.00;0.00;;;17.50;99.90;;;;;;5027526;28;20053;-72
2023/07/26 11:25:58;;;;;;;1.45;0.30;;;17.80;99.90;;;;;;5024996;28;20041;-72
2023/07/26 11:28:27;;;;;;;0.00;0.00;;;17.70;99.90;;;;;;5020543;28;20545;-71
2023/07/26 11:30:55;;;;;;;0.65;0.65;;;17.80;99.90;;;;;;5021841;28;20114;-72
2023/07/26 11:33:36;;;;;;;0.13;0.13;;;18.10;99.90;;;;;;5031938;28;20616;-72
2023/07/26 11:36:04;;;;;;;0.00;0.00;;;18.10;99.90;;;;;;5026596;28;20405;-72
2023/07/26 11:38:30;;;;;;;0.00;0.00;;;18.20;99.90;;;;;;5028918;28;20041;-72
2023/07/26 11:40:56;;;;;;;0.55;0.55;;;18.40;99.90;;;;;;5021416;28;20055;-72
2023/07/26 11:43:26;;;;;;;0.00;0.00;;;18.20;99.90;;;;;;5021955;28;20042;-72
2023/07/26 11:45:52;;;;;;;0.00;0.00;;;18.10;99.90;;;;;;5026922;28;20095;-71
2023/07/26 11:48:19;;;;;;;0.00;0.00;;;18.70;99.90;;;;;;5039018;28;20485;-71
2023/07/26 11:50:45;;;;;;;1.45;0.52;;;19.10;99.90;;;;;;5027334;28;20091;-72
2023/07/26 11:53:12;;;;;;;0.00;0.00;;;19.00;99.90;;;;;;5029318;28;20049;-72
2023/07/26 11:55:40;;;;;;;0.15;0.15;;;18.80;99.90;;;;;;5034710;28;20428;-72
2023/07/26 11:58:08;;;;;;;0.00;0.00;;;19.00;99.90;;;;;;5024857;28;20048;-72
2023/07/26 12:00:54;;;;;;;0.00;0.00;;;19.50;99.90;;;;;;5032778;28;20481;-72
2023/07/26 12:03:20;;;;;;;3.30;0.22;;;19.30;99.90;;;;;;5022968;28;20140;-72
2023/07/26 12:05:50;;;;;;;0.00;0.00;;;19.40;99.90;;;;;;5027298;28;20034;-72
2023/07/26 12:08:18;;;;;;;0.10;0.10;;;19.90;99.90;;;;;;5022765;28;20881;-71
2023/07/26 12:10:46;;;;;;;0.10;0.10;;;19.70;99.90;;;;;;5033284;28;20052;-71
2023/07/26 12:13:20;;;;;;;0.13;0.13;;;19.60;99.90;;;;;;5027544;28;20046;-71
2023/07/26 12:15:51;;;;;;;0.00;0.00;;;19.30;99.90;;;;;;5025939;28;20539;-72
2023/07/26 12:18:18;;;;;;;0.05;0.05;;;19.00;99.90;;;;;;5034097;28;20046;-71
2023/07/26 12:21:10;;;;;;;0.10;0.10;;;19.70;99.90;;;;;;5027389;28;20108;-72
2023/07/26 12:23:56;;;;;;;0.25;0.25;;;19.90;99.90;;;;;;5027201;28;20053;-71
2023/07/26 12:26:23;;;;;;;0.20;0.20;;;19.80;99.90;;;;;;5037143;28;20050;-72
2023/07/26 12:28:50;;;;;;;0.00;0.00;;;20.40;99.90;;;;;;5021897;28;20042;-71
2023/07/26 12:31:21;;;;;;;0.00;0.00;;;19.90;99.90;;;;;;5030575;28;20049;-71
2023/07/26 12:34:08;;;;;;;0.00;0.00;;;19.60;99.90;;;;;;5030020;28;20044;-71
2023/07/26 12:36:36;;;;;;;0.75;0.22;;;20.50;99.90;;;;;;5023661;28;20219;-72
2023/07/26 12:39:02;;;;;;;0.00;0.00;;;20.80;99.90;;;;;;5027650;28;20053;-71
2023/07/26 12:41:28;;;;;;;0.00;0.00;;;21.10;99.90;;;;;;5027688;28;20046;-71
2023/07/26 12:43:55;;;;;;;0.00;0.00;;;21.10;99.90;;;;;;5029071;28;20386;-71
2023/07/26 12:46:22;;;;;;;1.13;0.38;;;21.20;99.90;;;;;;5024978;28;20040;-71
2023/07/26 12:48:48;;;;;;;0.00;0.00;;;20.80;99.90;;;;;;5022243;28;20038;-71